Superior, MT (59872)

8:28 AM MST on January 19, 2017 (GMT -0700)
MSTGM8 | | Change Station
Active Advisory: Winter Weather Advisory

Elev 2676 ft 47.31 °N, 115.11 °W | Updated 3 seconds ago

Overcast
Overcast
32.0 °F
Feels Like 32 °F
N
0.0
Wind Variable Wind from North
Gusts 1.0 mph

Today
High -- | Low -- °F
--% Chance of Precip.
Yesterday
High -- | Low -- °F
Precip. -- in
Pressure 29.58 in
Visibility 4.0 miles
Clouds Scattered Clouds 3500 ft
Scattered Clouds 6000 ft
Overcast 7500 ft
Windchill 32 °F
Dew Point 32 °F
Humidity 99%
Rainfall 0.10 in
Snow Depth Not available.
8:18 AM 5:22 PM
Waning Gibbous, 53% visible
SPECI KMSO 191518Z AUTO 00000KT 4SM BR SCT035 SCT060 OVC075 M02/M03 A2958 RMK AO2 T10221028
Pressure 29.58 in
Visibility 4.0 miles
Clouds Scattered Clouds 3500 ft
Scattered Clouds 6000 ft
Overcast 7500 ft
Windchill 32 °F
Dew Point 32 °F
Humidity 99%
Rainfall 0.10 in
Snow Depth Not available.
8:18 AM 5:22 PM
Waning Gibbous, 53% visible
SPECI KMSO 191518Z AUTO 00000KT 4SM BR SCT035 SCT060 OVC075 M02/M03 A2958 RMK AO2 T10221028

Get Your Daily Forecast Email!

Thanks for signing up!

Be on the lookout for a verification email in your inbox.

You'll start receiving the daily forecast at 8 AM.

×

10-Day Weather Forecast

Almanac

Astronomy

Jan. 19, 2017 Rise Set
Actual Time
Civil Twilight
Nautical Twilight
Astronomical Twilight
Moon
Length of Visible Light
Length of Day
Tomorrow will be .
, % of the Moon is Illuminated

Today's Extremes

State Highs State Lows

Community

WunderPhotos

Upload Photos

1,962,540 photos uploaded!

WunderBlog® & News

Nearby

Air Quality

  Air Quality AQ Index Pollutant
Not available.

Snow Depth

Station Depth Elevation

Earthquake Activity

City Distance Mag. Time & Date
Minimum magnitude displayed is 2.5.

Coastal Water Temperatures

Place Temperature

Stations

Nearby Weather Stations

Station Location Temp. Windchill Dew Point Humidity Wind Precip. Elev Updated Type
                   

Watches & Warnings

Winter Weather Advisory
Issued: 8:06 AM MST Jan. 19, 2017 – National Weather Service

... Winter Weather Advisory remains in effect until 11 am MST this
morning...

* impacts/timing: another round of rain/freezing rain/snow is
expected this morning. Refreeze on roads is possible today due
to cold sub surface temperatures. Quickly changing and slick
driving conditions should be planned for through the morning
commute.

* Snow accumulations: 1 to 2 inches at Lookout Pass.

* Locations impacted include: Evaro hill, Highway 200 Thompson
Falls to plains, Highway 200 Trout Creek to Heron, and I- 90
Lookout Pass to Haugan